sensor_id;sensor_type;location;lat;lon;timestamp;temperature;humidity
4594;DHT22;2309;51.674;8.368;2023-07-29T01:28:04;18.90;99.90
4594;DHT22;2309;51.674;8.368;2023-07-29T01:33:08;18.70;99.90
4594;DHT22;2309;51.674;8.368;2023-07-29T01:35:58;18.80;99.90
4594;DHT22;2309;51.674;8.368;2023-07-29T01:40:22;18.60;99.90
4594;DHT22;2309;51.674;8.368;2023-07-29T01:42:49;18.50;99.90
4594;DHT22;2309;51.674;8.368;2023-07-29T01:45:17;18.40;99.90
4594;DHT22;2309;51.674;8.368;2023-07-29T01:47:44;18.40;99.90
4594;DHT22;2309;51.674;8.368;2023-07-29T01:50:11;18.40;99.90
4594;DHT22;2309;51.674;8.368;2023-07-29T01:52:38;18.40;99.90
4594;DHT22;2309;51.674;8.368;2023-07-29T01:55:05;18.40;99.90
4594;DHT22;2309;51.674;8.368;2023-07-29T01:57:31;18.40;99.90
4594;DHT22;2309;51.674;8.368;2023-07-29T01:59:58;18.40;99.90
4594;DHT22;2309;51.674;8.368;2023-07-29T02:02:26;18.50;99.90
4594;DHT22;2309;51.674;8.368;2023-07-29T02:04:52;18.50;99.90
4594;DHT22;2309;51.674;8.368;2023-07-29T02:07:21;18.50;99.90
4594;DHT22;2309;51.674;8.368;2023-07-29T02:09:49;18.50;99.90
4594;DHT22;2309;51.674;8.368;2023-07-29T02:12:16;18.50;99.90
4594;DHT22;2309;51.674;8.368;2023-07-29T02:14:42;18.50;99.90
4594;DHT22;2309;51.674;8.368;2023-07-29T02:17:09;18.60;99.90
4594;DHT22;2309;51.674;8.368;2023-07-29T02:19:38;18.60;99.90
4594;DHT22;2309;51.674;8.368;2023-07-29T02:22:05;18.60;99.90
4594;DHT22;2309;51.674;8.368;2023-07-29T02:24:32;18.60;99.90
4594;DHT22;2309;51.674;8.368;2023-07-29T02:26:59;18.60;99.90
4594;DHT22;2309;51.674;8.368;2023-07-29T02:29:25;18.60;99.90
4594;DHT22;2309;51.674;8.368;2023-07-29T02:31:52;18.60;99.90
4594;DHT22;2309;51.674;8.368;2023-07-29T02:34:20;18.60;99.90
4594;DHT22;2309;51.674;8.368;2023-07-29T02:36:47;18.70;99.90
4594;DHT22;2309;51.674;8.368;2023-07-29T02:39:14;18.70;99.90
4594;DHT22;2309;51.674;8.368;2023-07-29T02:41:41;18.70;99.90
4594;DHT22;2309;51.674;8.368;2023-07-29T02:44:08;18.70;99.90
4594;DHT22;2309;51.674;8.368;2023-07-29T02:46:35;18.80;99.90
4594;DHT22;2309;51.674;8.368;2023-07-29T02:49:02;18.80;99.90
4594;DHT22;2309;51.674;8.368;2023-07-29T02:51:30;18.80;99.90
4594;DHT22;2309;51.674;8.368;2023-07-29T02:53:57;18.80;99.90
4594;DHT22;2309;51.674;8.368;2023-07-29T02:56:24;18.70;99.90
4594;DHT22;2309;51.674;8.368;2023-07-29T02:58:50;18.80;99.90
4594;DHT22;2309;51.674;8.368;2023-07-29T03:03:44;18.70;99.90
4594;DHT22;2309;51.674;8.368;2023-07-29T03:06:12;18.70;99.90
4594;DHT22;2309;51.674;8.368;2023-07-29T03:08:39;18.70;99.90
4594;DHT22;2309;51.674;8.368;2023-07-29T03:11:07;18.70;99.90
4594;DHT22;2309;51.674;8.368;2023-07-29T03:13:34;18.70;99.90
4594;DHT22;2309;51.674;8.368;2023-07-29T03:16:08;18.70;99.90
4594;DHT22;2309;51.674;8.368;2023-07-29T03:18:30;18.80;99.90
4594;DHT22;2309;51.674;8.368;2023-07-29T03:20:56;18.80;99.90
4594;DHT22;2309;51.674;8.368;2023-07-29T03:23:23;18.70;99.90
4594;DHT22;2309;51.674;8.368;2023-07-29T03:25:50;18.70;99.90
4594;DHT22;2309;51.674;8.368;2023-07-29T03:28:19;18.60;99.90
4594;DHT22;2309;51.674;8.368;2023-07-29T03:30:45;18.60;99.90
4594;DHT22;2309;51.674;8.368;2023-07-29T03:33:12;18.60;99.90
4594;DHT22;2309;51.674;8.368;2023-07-29T03:35:39;18.60;99.90
4594;DHT22;2309;51.674;8.368;2023-07-29T03:38:08;18.50;99.90
4594;DHT22;2309;51.674;8.368;2023-07-29T03:43:09;18.50;99.90
4594;DHT22;2309;51.674;8.368;2023-07-29T03:45:38;18.40;99.90
4594;DHT22;2309;51.674;8.368;2023-07-29T03:48:06;18.40;99.90
4594;DHT22;2309;51.674;8.368;2023-07-29T03:50:33;18.40;99.90
4594;DHT22;2309;51.674;8.368;2023-07-29T03:53:02;18.40;99.90
4594;DHT22;2309;51.674;8.368;2023-07-29T03:57:57;18.40;99.90
4594;DHT22;2309;51.674;8.368;2023-07-29T04:00:24;18.40;99.90
4594;DHT22;2309;51.674;8.368;2023-07-29T04:02:51;18.40;99.90
4594;DHT22;2309;51.674;8.368;2023-07-29T04:07:44;18.40;99.90
4594;DHT22;2309;51.674;8.368;2023-07-29T04:10:11;18.40;99.90
4594;DHT22;2309;51.674;8.368;2023-07-29T04:12:38;18.40;99.90
4594;DHT22;2309;51.674;8.368;2023-07-29T04:15:05;18.50;99.90
4594;DHT22;2309;51.674;8.368;2023-07-29T04:17:32;18.50;99.90
4594;DHT22;2309;51.674;8.368;2023-07-29T04:19:59;18.50;99.90
4594;DHT22;2309;51.674;8.368;2023-07-29T04:22:25;18.50;99.90
4594;DHT22;2309;51.674;8.368;2023-07-29T04:24:52;18.50;99.90
4594;DHT22;2309;51.674;8.368;2023-07-29T04:27:19;18.50;99.90
4594;DHT22;2309;51.674;8.368;2023-07-29T04:29:48;18.50;99.90
4594;DHT22;2309;51.674;8.368;2023-07-29T04:32:15;18.60;99.90
4594;DHT22;2309;51.674;8.368;2023-07-29T04:34:41;18.60;99.90
4594;DHT22;2309;51.674;8.368;2023-07-29T04:37:08;18.60;99.90
4594;DHT22;2309;51.674;8.368;2023-07-29T04:39:35;18.70;99.90
4594;DHT22;2309;51.674;8.368;2023-07-29T04:44:31;18.80;99.90
4594;DHT22;2309;51.674;8.368;2023-07-29T04:46:57;18.80;99.90
4594;DHT22;2309;51.674;8.368;2023-07-29T04:49:24;18.80;99.90
4594;DHT22;2309;51.674;8.368;2023-07-29T04:51:51;18.80;99.90
4594;DHT22;2309;51.674;8.368;2023-07-29T04:54:18;18.80;99.90
4594;DHT22;2309;51.674;8.368;2023-07-29T04:56:46;18.80;99.90
4594;DHT22;2309;51.674;8.368;2023-07-29T04:59:13;18.80;99.90
4594;DHT22;2309;51.674;8.368;2023-07-29T05:04:09;18.80;99.90
4594;DHT22;2309;51.674;8.368;2023-07-29T05:06:36;18.80;99.90
4594;DHT22;2309;51.674;8.368;2023-07-29T05:09:19;18.90;99.90
4594;DHT22;2309;51.674;8.368;2023-07-29T05:11:32;18.90;99.90
4594;DHT22;2309;51.674;8.368;2023-07-29T05:13:59;19.00;99.90
4594;DHT22;2309;51.674;8.368;2023-07-29T05:16:26;18.90;99.90
4594;DHT22;2309;51.674;8.368;2023-07-29T05:21:20;18.90;99.90
4594;DHT22;2309;51.674;8.368;2023-07-29T05:23:46;18.90;99.90
4594;DHT22;2309;51.674;8.368;2023-07-29T05:26:14;18.90;99.90
4594;DHT22;2309;51.674;8.368;2023-07-29T05:28:41;18.90;99.90
4594;DHT22;2309;51.674;8.368;2023-07-29T05:31:08;19.00;99.90
4594;DHT22;2309;51.674;8.368;2023-07-29T05:33:35;19.00;99.90
4594;DHT22;2309;51.674;8.368;2023-07-29T05:36:02;19.10;99.90
4594;DHT22;2309;51.674;8.368;2023-07-29T05:38:29;19.10;99.90
4594;DHT22;2309;51.674;8.368;2023-07-29T05:40:56;19.30;99.90
4594;DHT22;2309;51.674;8.368;2023-07-29T10:22:48;22.70;1.00
4594;DHT22;2309;51.674;8.368;2023-07-29T10:25:16;22.70;1.00
4594;DHT22;2309;51.674;8.368;2023-07-29T10:27:48;22.80;1.00
4594;DHT22;2309;51.674;8.368;2023-07-29T10:32:41;23.00;1.00
4594;DHT22;2309;51.674;8.368;2023-07-29T10:35:09;23.30;1.00
4594;DHT22;2309;51.674;8.368;2023-07-29T10:37:36;23.20;1.00
4594;DHT22;2309;51.674;8.368;2023-07-29T10:40:05;23.10;1.00
4594;DHT22;2309;51.674;8.368;2023-07-29T10:42:31;22.80;1.00
4594;DHT22;2309;51.674;8.368;2023-07-29T10:44:58;22.70;1.00
4594;DHT22;2309;51.674;8.368;2023-07-29T10:47:26;23.50;1.00
4594;DHT22;2309;51.674;8.368;2023-07-29T10:49:54;23.90;1.00
4594;DHT22;2309;51.674;8.368;2023-07-29T10:54:50;24.90;1.00
4594;DHT22;2309;51.674;8.368;2023-07-29T10:57:32;24.70;1.00
4594;DHT22;2309;51.674;8.368;2023-07-29T11:00:00;24.60;1.00
4594;DHT22;2309;51.674;8.368;2023-07-29T11:02:15;24.50;1.00
4594;DHT22;2309;51.674;8.368;2023-07-29T11:04:46;24.40;1.00
4594;DHT22;2309;51.674;8.368;2023-07-29T11:10:11;24.50;1.00
4594;DHT22;2309;51.674;8.368;2023-07-29T11:12:39;24.80;1.00
4594;DHT22;2309;51.674;8.368;2023-07-29T11:14:35;25.10;1.00
4594;DHT22;2309;51.674;8.368;2023-07-29T11:17:03;25.20;1.00
4594;DHT22;2309;51.674;8.368;2023-07-29T11:19:30;25.20;1.00
4594;DHT22;2309;51.674;8.368;2023-07-29T11:21:57;25.30;1.00
4594;DHT22;2309;51.674;8.368;2023-07-29T11:24:25;26.00;1.00
4594;DHT22;2309;51.674;8.368;2023-07-29T11:26:52;26.80;1.00
4594;DHT22;2309;51.674;8.368;2023-07-29T11:29:18;26.90;1.00
4594;DHT22;2309;51.674;8.368;2023-07-29T11:31:45;26.90;1.00
4594;DHT22;2309;51.674;8.368;2023-07-29T11:34:14;26.60;1.00
4594;DHT22;2309;51.674;8.368;2023-07-29T11:36:45;26.00;1.00
4594;DHT22;2309;51.674;8.368;2023-07-29T11:39:10;26.30;1.00
4594;DHT22;2309;51.674;8.368;2023-07-29T11:41:37;26.30;1.00
4594;DHT22;2309;51.674;8.368;2023-07-29T11:44:04;26.20;1.00
4594;DHT22;2309;51.674;8.368;2023-07-29T11:46:34;26.30;1.00
4594;DHT22;2309;51.674;8.368;2023-07-29T11:49:00;26.60;1.00
4594;DHT22;2309;51.674;8.368;2023-07-29T11:53:55;27.30;1.00
4594;DHT22;2309;51.674;8.368;2023-07-29T11:56:26;27.00;1.00
4594;DHT22;2309;51.674;8.368;2023-07-29T15:38:33;19.60;99.90
4594;DHT22;2309;51.674;8.368;2023-07-29T15:41:01;18.70;99.90
4594;DHT22;2309;51.674;8.368;2023-07-29T15:43:28;18.20;99.90
4594;DHT22;2309;51.674;8.368;2023-07-29T15:45:56;17.70;99.90
4594;DHT22;2309;51.674;8.368;2023-07-29T15:48:23;17.30;99.90
4594;DHT22;2309;51.674;8.368;2023-07-29T15:51:05;17.20;99.90
